createdAt,value
2024-04-18T00:02:19.206Z,69.41
2024-04-18T00:04:46.847Z,69.40
2024-04-18T00:07:14.630Z,69.66
2024-04-18T00:09:42.328Z,69.87
2024-04-18T00:12:10.098Z,70.14
2024-04-18T00:14:37.780Z,70.12
2024-04-18T00:17:06.023Z,70.32
2024-04-18T00:19:36.218Z,70.33
2024-04-18T00:22:05.707Z,70.23
2024-04-18T00:24:33.292Z,70.51
2024-04-18T00:27:01.106Z,70.39
2024-04-18T00:29:28.673Z,70.68
2024-04-18T00:31:56.316Z,70.78
2024-04-18T00:34:23.908Z,70.85
2024-04-18T00:36:51.712Z,70.87
2024-04-18T00:39:19.528Z,70.96
2024-04-18T00:41:47.172Z,71.22
2024-04-18T00:44:15.574Z,71.20
2024-04-18T00:46:43.253Z,71.37
2024-04-18T00:49:11.083Z,71.92
2024-04-18T00:51:39.331Z,71.88
2024-04-18T00:54:09.292Z,71.83
2024-04-18T00:56:38.883Z,72.03
2024-04-18T00:59:06.848Z,71.85
2024-04-18T01:01:34.710Z,71.82
2024-04-18T01:04:02.507Z,72.74
2024-04-18T01:06:30.804Z,72.84
2024-04-18T01:09:01.546Z,72.62
2024-04-18T01:11:29.309Z,72.33
2024-04-18T01:13:56.900Z,72.17
2024-04-18T01:16:24.670Z,72.22
2024-04-18T01:18:52.318Z,72.04
2024-04-18T01:21:20.164Z,71.88
2024-04-18T01:23:47.706Z,71.94
2024-04-18T01:26:19.436Z,71.85
2024-04-18T01:28:47.031Z,71.72
2024-04-18T01:31:14.664Z,72.29
2024-04-18T01:33:42.359Z,72.34
2024-04-18T01:36:10.053Z,72.25
2024-04-18T01:38:37.774Z,72.16
2024-04-18T01:41:05.472Z,71.99
2024-04-18T01:43:33.325Z,71.93
2024-04-18T01:46:00.962Z,71.91
2024-04-18T01:48:28.900Z,71.82
2024-04-18T01:50:56.675Z,72.18
2024-04-18T01:53:24.281Z,72.25
2024-04-18T01:55:51.880Z,72.16
2024-04-18T01:58:19.519Z,72.01
2024-04-18T02:00:47.619Z,72.07
2024-04-18T02:03:15.421Z,72.08
2024-04-18T02:05:43.918Z,71.80
2024-04-18T02:08:11.505Z,71.93
2024-04-18T02:10:39.178Z,72.30
2024-04-18T02:13:06.916Z,72.48
2024-04-18T02:15:34.648Z,72.46
2024-04-18T02:18:02.266Z,72.50
2024-04-18T02:20:29.911Z,72.24
2024-04-18T02:22:57.460Z,72.25
2024-04-18T02:25:25.125Z,72.26
2024-04-18T02:27:52.778Z,72.46
2024-04-18T02:30:22.347Z,72.58
2024-04-18T02:32:51.529Z,72.59
2024-04-18T02:35:19.119Z,72.21
2024-04-18T02:37:46.666Z,72.54
2024-04-18T02:40:14.312Z,72.35
2024-04-18T02:42:42.025Z,72.22
2024-04-18T02:45:09.848Z,72.40
2024-04-18T02:47:37.601Z,72.68
2024-04-18T02:50:07.477Z,72.88
2024-04-18T02:52:35.086Z,73.05
2024-04-18T02:55:02.661Z,72.76
2024-04-18T02:57:30.321Z,72.64
2024-04-18T03:00:00.881Z,72.44
2024-04-18T03:02:28.885Z,72.57
2024-04-18T03:04:56.663Z,72.44
2024-04-18T03:07:24.344Z,72.65
2024-04-18T03:09:53.757Z,72.95
2024-04-18T03:12:21.388Z,72.90
2024-04-18T03:14:50.035Z,73.35
2024-04-18T03:17:17.604Z,72.87
2024-04-18T03:19:45.509Z,72.81
2024-04-18T03:22:13.220Z,72.65
2024-04-18T03:24:44.968Z,72.47
2024-04-18T03:27:12.897Z,72.74
2024-04-18T03:29:40.996Z,73.05
2024-04-18T03:32:08.617Z,72.86
2024-04-18T03:34:36.512Z,72.67
2024-04-18T03:37:04.342Z,72.58
2024-04-18T03:39:32.579Z,72.46
2024-04-18T03:42:00.300Z,72.38
2024-04-18T03:44:28.079Z,72.55
2024-04-18T03:46:55.732Z,72.66
2024-04-18T03:49:23.550Z,72.40
2024-04-18T03:51:51.346Z,72.38
2024-04-18T03:54:21.347Z,72.21
2024-04-18T03:56:49.326Z,72.14
2024-04-18T03:59:17.058Z,71.90
2024-04-18T04:01:44.819Z,72.30
2024-04-18T04:04:12.638Z,72.55
2024-04-18T04:06:40.718Z,72.63
2024-04-18T04:09:08.438Z,72.52
2024-04-18T04:11:37.074Z,72.46
2024-04-18T04:14:06.463Z,72.38
2024-04-18T04:16:34.122Z,72.22
2024-04-18T04:19:01.941Z,72.24
2024-04-18T04:21:29.797Z,72.52
2024-04-18T04:23:58.084Z,72.73
2024-04-18T04:26:25.834Z,72.65
2024-04-18T04:28:53.558Z,72.75
2024-04-18T04:31:21.270Z,72.51
2024-04-18T04:33:49.007Z,72.52
2024-04-18T04:36:17.856Z,72.76
2024-04-18T04:38:45.599Z,72.69
2024-04-18T04:41:14.615Z,73.02
2024-04-18T04:43:42.883Z,73.31
2024-04-18T04:46:10.525Z,73.33
2024-04-18T04:48:40.926Z,73.11
2024-04-18T04:51:08.945Z,73.03
2024-04-18T04:53:36.885Z,72.94
2024-04-18T04:56:04.875Z,72.85
2024-04-18T04:58:32.474Z,72.91
2024-04-18T05:01:00.338Z,73.04
2024-04-18T05:03:28.315Z,73.02
2024-04-18T05:05:56.287Z,73.12
2024-04-18T05:08:24.110Z,72.91
2024-04-18T05:10:51.669Z,72.77
2024-04-18T05:13:19.632Z,72.62
2024-04-18T05:15:47.278Z,72.60
2024-04-18T05:18:16.760Z,72.45
2024-04-18T05:20:45.282Z,72.52
2024-04-18T05:23:12.718Z,72.41
2024-04-18T05:25:40.474Z,72.47
2024-04-18T05:28:12.460Z,72.46
2024-04-18T05:30:59.290Z,72.37
2024-04-18T05:33:27.094Z,72.25
2024-04-18T05:35:54.897Z,72.27
2024-04-18T05:38:22.675Z,72.09
2024-04-18T05:40:50.659Z,72.25
2024-04-18T05:43:18.894Z,72.35
2024-04-18T05:45:47.504Z,72.62
2024-04-18T05:48:15.358Z,72.50
2024-04-18T05:50:43.657Z,72.41
2024-04-18T05:53:11.239Z,72.15
2024-04-18T05:55:41.169Z,72.02
2024-04-18T05:58:10.244Z,72.04
2024-04-18T06:00:37.918Z,71.84
2024-04-18T06:03:06.024Z,72.20
2024-04-18T06:05:34.404Z,71.87
2024-04-18T06:08:02.823Z,71.72
2024-04-18T06:10:30.800Z,71.63
2024-04-18T06:12:58.599Z,71.38
2024-04-18T06:15:26.159Z,71.47
2024-04-18T06:17:53.866Z,71.21
2024-04-18T06:20:25.004Z,71.09
2024-04-18T06:22:52.611Z,71.15
2024-04-18T06:25:20.202Z,71.14
2024-04-18T06:27:48.471Z,70.87
2024-04-18T06:30:16.474Z,70.70
2024-04-18T06:32:45.703Z,70.77
2024-04-18T06:35:13.505Z,70.66
2024-04-18T06:37:41.589Z,70.55
2024-04-18T06:40:11.357Z,70.35
2024-04-18T06:42:39.040Z,70.65
2024-04-18T06:45:06.823Z,70.77
2024-04-18T06:47:34.558Z,70.92
2024-04-18T06:50:02.351Z,71.07
2024-04-18T06:52:30.023Z,70.88
2024-04-18T06:54:57.659Z,71.18
2024-04-18T06:57:25.353Z,70.99
2024-04-18T06:59:53.547Z,70.93
2024-04-18T07:02:21.317Z,70.84
2024-04-18T07:04:48.889Z,70.89
2024-04-18T07:07:16.708Z,71.02
2024-04-18T07:09:47.358Z,71.11
2024-04-18T07:12:18.325Z,71.50
2024-04-18T07:14:45.992Z,71.67
2024-04-18T07:17:13.973Z,72.20
2024-04-18T07:19:42.113Z,72.03
2024-04-18T07:22:09.936Z,72.03
2024-04-18T07:24:39.352Z,71.88
2024-04-18T07:27:06.983Z,71.71
2024-04-18T07:29:34.706Z,71.96
2024-04-18T07:32:02.322Z,71.74
2024-04-18T07:34:29.940Z,71.78
2024-04-18T07:36:57.742Z,71.94
2024-04-18T07:39:26.446Z,72.13
2024-04-18T07:41:54.040Z,72.13
2024-04-18T07:44:24.092Z,72.12
2024-04-18T07:46:52.497Z,71.97
2024-04-18T07:49:20.357Z,71.90
2024-04-18T07:51:48.480Z,72.10
2024-04-18T07:54:19.338Z,72.16
2024-04-18T07:56:48.475Z,72.37
2024-04-18T07:59:18.436Z,72.45
2024-04-18T08:01:48.714Z,72.29
2024-04-18T08:04:34.931Z,72.19
2024-04-18T08:07:07.937Z,72.03
2024-04-18T08:09:40.198Z,71.90
2024-04-18T08:12:24.133Z,71.87
2024-04-18T08:14:58.744Z,72.14
2024-04-18T08:17:29.628Z,72.42
2024-04-18T08:19:57.452Z,72.63
2024-04-18T08:22:25.907Z,72.63
2024-04-18T08:24:53.678Z,72.55
2024-04-18T08:27:21.344Z,72.45
2024-04-18T08:29:49.079Z,72.31
2024-04-18T08:32:16.787Z,72.37
2024-04-18T08:34:45.150Z,72.15
2024-04-18T08:37:14.467Z,72.60
2024-04-18T08:39:42.414Z,72.83
2024-04-18T08:42:14.742Z,72.79
2024-04-18T08:44:42.729Z,73.11
2024-04-18T08:47:15.787Z,73.72
2024-04-18T08:49:45.761Z,73.30
2024-04-18T08:52:15.977Z,72.99
2024-04-18T08:54:45.851Z,72.66
2024-04-18T08:57:22.272Z,72.70
2024-04-18T08:59:55.320Z,72.42
2024-04-18T09:02:23.345Z,72.73
2024-04-18T09:04:54.103Z,73.10
2024-04-18T09:07:25.738Z,73.29
2024-04-18T09:10:11.660Z,73.44
2024-04-18T09:12:39.937Z,73.17
2024-04-18T09:15:09.602Z,73.02
2024-04-18T09:17:37.781Z,73.74
2024-04-18T09:20:06.767Z,74.62
2024-04-18T09:22:34.724Z,74.60
2024-04-18T09:25:07.713Z,74.74
2024-04-18T09:27:36.572Z,75.09
2024-04-18T09:30:05.486Z,74.77
2024-04-18T09:32:34.187Z,74.42
2024-04-18T09:35:05.210Z,74.19
2024-04-18T09:37:34.046Z,73.76
2024-04-18T09:40:03.413Z,73.26
2024-04-18T09:43:16.098Z,73.10
2024-04-18T09:46:05.176Z,72.71
2024-04-18T09:48:34.232Z,72.66
2024-04-18T09:51:04.423Z,72.85
2024-04-18T09:53:32.768Z,73.31
2024-04-18T09:56:01.410Z,73.15
2024-04-18T09:58:29.697Z,72.92
2024-04-18T10:00:58.341Z,72.92
2024-04-18T10:03:26.269Z,73.28
2024-04-18T10:05:56.895Z,73.77
2024-04-18T10:08:31.534Z,73.71
2024-04-18T10:10:59.746Z,73.87
2024-04-18T10:13:27.806Z,74.24
2024-04-18T10:16:10.817Z,73.86
2024-04-18T10:18:41.138Z,74.34
2024-04-18T10:21:18.758Z,74.57
2024-04-18T10:23:54.624Z,75.24
2024-04-18T10:26:23.273Z,75.18
2024-04-18T10:28:51.318Z,74.97
2024-04-18T10:31:20.997Z,74.73
2024-04-18T10:33:52.468Z,74.74
2024-04-18T10:36:26.366Z,74.74
2024-04-18T10:38:54.227Z,75.13
2024-04-18T10:41:23.791Z,74.82
2024-04-18T10:43:55.890Z,74.84
2024-04-18T10:46:24.623Z,74.82
2024-04-18T10:48:56.002Z,75.30
2024-04-18T10:51:28.404Z,75.61
2024-04-18T10:53:56.013Z,75.87
2024-04-18T10:56:23.722Z,75.82
2024-04-18T10:58:52.519Z,75.72
2024-04-18T11:01:21.918Z,75.66
2024-04-18T11:04:02.891Z,75.54
2024-04-18T11:06:30.624Z,75.93
2024-04-18T11:09:01.582Z,76.38
2024-04-18T11:11:33.280Z,75.72
2024-04-18T11:14:01.608Z,75.40
2024-04-18T11:16:29.623Z,74.78
2024-04-18T11:18:59.751Z,74.57
2024-04-18T11:21:28.008Z,74.27
2024-04-18T11:23:56.332Z,73.93
2024-04-18T11:26:28.981Z,73.84
2024-04-18T11:28:58.356Z,73.70
2024-04-18T11:31:25.873Z,73.19
2024-04-18T11:33:56.869Z,72.70
2024-04-18T11:36:25.578Z,72.86
2024-04-18T11:38:58.467Z,72.59
2024-04-18T11:41:30.156Z,72.79
2024-04-18T11:43:58.026Z,72.94
2024-04-18T11:46:28.094Z,73.03
2024-04-18T11:48:56.182Z,73.12
2024-04-18T11:51:24.966Z,72.90
2024-04-18T11:53:57.041Z,72.78
2024-04-18T11:56:24.595Z,73.28
2024-04-18T11:58:54.728Z,72.94
2024-04-18T12:01:22.448Z,72.54
2024-04-18T12:03:50.125Z,72.23
2024-04-18T12:06:18.254Z,72.50
2024-04-18T12:08:50.092Z,72.31
2024-04-18T12:11:20.023Z,72.78
2024-04-18T12:13:49.064Z,72.85
2024-04-18T12:16:16.822Z,72.67
2024-04-18T12:18:44.640Z,72.50
2024-04-18T12:21:15.151Z,72.22
2024-04-18T12:23:43.817Z,71.66
2024-04-18T12:26:12.062Z,71.97
2024-04-18T12:28:40.077Z,71.81
2024-04-18T12:31:07.810Z,71.65
2024-04-18T12:33:35.682Z,71.57
2024-04-18T12:36:04.744Z,70.98
2024-04-18T12:38:32.426Z,70.25
2024-04-18T12:41:03.854Z,70.20
2024-04-18T12:43:34.125Z,70.34
2024-04-18T12:46:10.944Z,69.50
2024-04-18T12:48:47.907Z,70.31
2024-04-18T12:51:16.866Z,69.85
2024-04-18T12:53:44.823Z,69.02
2024-04-18T12:56:13.613Z,68.75
2024-04-18T12:58:41.306Z,68.40
2024-04-18T13:01:12.097Z,68.31
2024-04-18T13:03:43.866Z,68.39
2024-04-18T13:06:12.310Z,67.88
2024-04-18T13:08:39.874Z,67.40
2024-04-18T13:11:07.582Z,66.65
2024-04-18T13:13:35.361Z,66.31
2024-04-18T13:16:04.489Z,66.43
2024-04-18T13:18:32.329Z,65.77
2024-04-18T13:21:00.178Z,65.06
2024-04-18T13:23:27.739Z,65.31
2024-04-18T13:25:55.833Z,64.71
2024-04-18T13:28:23.539Z,64.39
2024-04-18T13:30:51.490Z,63.35
2024-04-18T13:33:19.855Z,63.90
2024-04-18T13:35:48.399Z,62.80
2024-04-18T13:38:15.962Z,63.90
2024-04-18T13:40:43.820Z,63.20
2024-04-18T13:43:11.581Z,63.96
2024-04-18T13:45:39.437Z,64.65
2024-04-18T13:48:07.997Z,64.73
2024-04-18T13:50:35.837Z,64.74
2024-04-18T13:53:03.513Z,64.54
2024-04-18T13:55:31.382Z,64.07
2024-04-18T13:57:59.987Z,63.93
2024-04-18T14:00:28.215Z,62.18
2024-04-18T14:02:56.026Z,62.35
2024-04-18T14:05:24.847Z,63.25
2024-04-18T14:07:52.878Z,62.75
2024-04-18T14:10:20.458Z,62.60
2024-04-18T14:12:48.661Z,62.07
2024-04-18T14:15:29.287Z,61.96
2024-04-18T14:18:15.813Z,61.61
2024-04-18T14:20:51.121Z,61.73
2024-04-18T14:23:19.124Z,61.11
2024-04-18T14:25:47.550Z,60.76
2024-04-18T14:28:23.683Z,60.61
2024-04-18T14:30:56.650Z,59.99
2024-04-18T14:33:24.690Z,60.41
2024-04-18T14:35:53.793Z,60.72
2024-04-18T14:38:24.954Z,59.14
2024-04-18T14:41:01.610Z,58.20
2024-04-18T14:43:37.400Z,58.07
2024-04-18T14:46:05.452Z,56.53
2024-04-18T14:48:37.375Z,52.57
2024-04-18T14:51:05.995Z,48.93
2024-04-18T14:53:33.998Z,47.63
2024-04-18T14:56:04.889Z,46.01
2024-04-18T14:58:32.921Z,41.91
2024-04-18T15:01:00.485Z,40.08
2024-04-18T15:03:28.379Z,38.41
2024-04-18T15:05:57.796Z,38.01
2024-04-18T15:08:28.294Z,38.64
2024-04-18T15:10:56.809Z,39.22
2024-04-18T15:13:24.721Z,38.54
2024-04-18T15:15:52.275Z,39.43
2024-04-18T15:18:19.912Z,41.27
2024-04-18T15:20:47.682Z,43.31
2024-04-18T15:23:15.372Z,44.73
2024-04-18T15:25:43.276Z,47.40
2024-04-18T15:28:10.936Z,49.03
2024-04-18T15:30:38.657Z,50.91
2024-04-18T15:33:06.388Z,50.69
2024-04-18T15:35:34.776Z,50.46
2024-04-18T15:38:04.396Z,50.71
2024-04-18T15:40:36.316Z,51.34
2024-04-18T15:43:06.004Z,51.76
2024-04-18T15:45:38.855Z,51.81
2024-04-18T15:48:08.402Z,51.85
2024-04-18T15:50:36.189Z,52.01
2024-04-18T15:53:04.261Z,52.10
2024-04-18T15:55:34.186Z,52.30
2024-04-18T15:58:03.979Z,52.50
2024-04-18T16:00:31.890Z,52.87
2024-04-18T16:03:03.208Z,53.12
2024-04-18T16:05:31.073Z,53.21
2024-04-18T16:08:00.656Z,53.38
2024-04-18T16:10:30.185Z,53.53
2024-04-18T16:13:00.449Z,53.40
2024-04-18T16:15:29.880Z,53.36
2024-04-18T16:17:57.599Z,53.53
2024-04-18T16:20:26.251Z,53.64
2024-04-18T16:22:54.304Z,53.73
2024-04-18T16:25:24.727Z,53.92
2024-04-18T16:27:52.500Z,54.01
2024-04-18T16:30:20.956Z,54.17
2024-04-18T16:32:48.794Z,54.16
2024-04-18T16:35:17.002Z,54.35
2024-04-18T16:37:47.385Z,54.50
2024-04-18T16:40:16.799Z,54.74
2024-04-18T16:42:45.636Z,54.77
2024-04-18T16:45:13.262Z,54.91
2024-04-18T16:47:40.952Z,54.98
2024-04-18T16:50:09.317Z,55.19
2024-04-18T16:52:36.961Z,55.36
2024-04-18T16:55:06.152Z,56.10
2024-04-18T16:57:37.411Z,56.61
2024-04-18T17:00:06.919Z,56.94
2024-04-18T17:02:36.819Z,57.35
2024-04-18T17:05:12.721Z,57.82
2024-04-18T17:07:40.447Z,58.17
2024-04-18T17:10:08.292Z,58.48
2024-04-18T17:12:36.772Z,58.47
2024-04-18T17:15:08.172Z,58.71
2024-04-18T17:17:35.929Z,58.69
2024-04-18T17:20:05.493Z,58.71
2024-04-18T17:22:33.330Z,58.83
2024-04-18T17:25:01.064Z,58.98
2024-04-18T17:27:29.217Z,59.12
2024-04-18T17:29:57.067Z,59.16
2024-04-18T17:32:24.910Z,59.32
2024-04-18T17:34:52.868Z,59.53
2024-04-18T17:37:20.493Z,59.73
2024-04-18T17:39:51.488Z,59.84
2024-04-18T17:42:20.487Z,60.10
2024-04-18T17:44:48.082Z,60.59
2024-04-18T17:47:15.948Z,60.89
2024-04-18T17:49:43.556Z,61.07
2024-04-18T17:52:11.570Z,61.32
2024-04-18T17:54:39.461Z,61.69
2024-04-18T17:57:07.498Z,61.83
2024-04-18T17:59:35.282Z,61.88
2024-04-18T18:02:03.107Z,61.75
2024-04-18T18:04:31.376Z,61.81
2024-04-18T18:06:59.613Z,61.92
2024-04-18T18:09:28.474Z,62.22
2024-04-18T18:11:56.089Z,62.35
2024-04-18T18:14:24.693Z,62.67
2024-04-18T18:16:52.414Z,62.56
2024-04-18T18:19:23.316Z,62.41
2024-04-18T18:21:51.902Z,62.29
2024-04-18T18:24:19.632Z,62.32
2024-04-18T18:26:47.260Z,62.47
2024-04-18T18:29:15.673Z,62.53
2024-04-18T18:31:43.229Z,62.74
2024-04-18T18:34:14.276Z,62.89
2024-04-18T18:36:44.117Z,62.97
2024-04-18T18:39:13.073Z,62.92
2024-04-18T18:41:40.796Z,62.95
2024-04-18T18:44:08.571Z,62.93
2024-04-18T18:46:36.348Z,62.84
2024-04-18T18:49:03.990Z,62.90
2024-04-18T18:51:31.796Z,62.88
2024-04-18T18:54:00.794Z,62.85
2024-04-18T18:56:31.440Z,62.86
2024-04-18T18:58:59.440Z,63.07
2024-04-18T19:01:27.085Z,63.18
2024-04-18T19:03:54.854Z,63.56
2024-04-18T19:06:24.199Z,63.88
2024-04-18T19:08:52.165Z,64.11
2024-04-18T19:11:20.027Z,64.08
2024-04-18T19:13:48.060Z,64.02
2024-04-18T19:16:17.664Z,64.17
2024-04-18T19:18:47.200Z,64.09
2024-04-18T19:21:15.326Z,64.15
2024-04-18T19:23:46.375Z,64.06
2024-04-18T19:26:14.261Z,64.00
2024-04-18T19:28:42.629Z,63.79
2024-04-18T19:31:11.057Z,63.65
2024-04-18T19:33:38.823Z,63.49
2024-04-18T19:36:06.641Z,63.48
2024-04-18T19:38:34.578Z,63.29
2024-04-18T19:41:02.364Z,63.33
2024-04-18T19:43:30.134Z,63.54
2024-04-18T19:46:01.651Z,63.55
2024-04-18T19:48:30.176Z,63.41
2024-04-18T19:50:57.953Z,63.38
2024-04-18T19:53:25.595Z,63.33
2024-04-18T19:55:55.781Z,63.27
2024-04-18T19:58:23.968Z,63.03
2024-04-18T20:00:51.629Z,62.83
2024-04-18T20:03:19.689Z,62.74
2024-04-18T20:05:47.604Z,62.56
2024-04-18T20:08:15.223Z,62.37
2024-04-18T20:10:43.365Z,62.29
2024-04-18T20:13:10.952Z,62.18
2024-04-18T20:15:38.701Z,62.07
2024-04-18T20:18:08.002Z,62.01
2024-04-18T20:20:36.230Z,62.04
2024-04-18T20:23:04.327Z,62.12
2024-04-18T20:25:32.373Z,61.98
2024-04-18T20:28:00.185Z,62.15
2024-04-18T20:30:29.134Z,62.21
2024-04-18T20:32:57.986Z,62.37
2024-04-18T20:35:25.736Z,62.65
2024-04-18T20:37:56.255Z,63.07
2024-04-18T20:40:23.963Z,63.00
2024-04-18T20:42:51.525Z,63.08
2024-04-18T20:45:19.469Z,62.90
2024-04-18T20:47:47.505Z,63.05
2024-04-18T20:50:15.962Z,63.23
2024-04-18T20:52:43.590Z,63.28
2024-04-18T20:55:11.194Z,63.38
2024-04-18T20:57:38.774Z,63.54
2024-04-18T21:00:07.723Z,63.72
2024-04-18T21:02:35.554Z,63.88
2024-04-18T21:05:06.382Z,64.27
2024-04-18T21:07:34.001Z,64.62
2024-04-18T21:10:01.868Z,64.75
2024-04-18T21:12:29.549Z,64.85
2024-04-18T21:14:57.139Z,64.82
2024-04-18T21:17:24.780Z,64.77
2024-04-18T21:19:52.717Z,64.75
2024-04-18T21:22:20.581Z,64.61
2024-04-18T21:24:48.385Z,64.66
2024-04-18T21:27:16.463Z,64.86
2024-04-18T21:29:44.103Z,65.03
2024-04-18T21:32:11.939Z,65.14
2024-04-18T21:34:39.899Z,65.29
2024-04-18T21:37:07.503Z,65.43
2024-04-18T21:39:35.186Z,65.42
2024-04-18T21:42:03.006Z,65.66
2024-04-18T21:44:31.107Z,65.87
2024-04-18T21:46:58.686Z,65.73
2024-04-18T21:49:26.304Z,65.79
2024-04-18T21:51:54.148Z,65.94
2024-04-18T21:54:21.750Z,66.06
2024-04-18T21:56:49.359Z,65.95
2024-04-18T21:59:17.086Z,65.98
2024-04-18T22:01:44.692Z,66.22
2024-04-18T22:04:14.835Z,66.12
2024-04-18T22:06:42.864Z,66.13
2024-04-18T22:09:10.589Z,66.16
2024-04-18T22:11:38.582Z,66.20
2024-04-18T22:14:08.558Z,66.05
2024-04-18T22:16:36.131Z,65.98
2024-04-18T22:19:03.978Z,65.86
2024-04-18T22:21:32.703Z,65.77
2024-04-18T22:24:01.026Z,65.72
2024-04-18T22:26:28.708Z,65.68
2024-04-18T22:28:56.276Z,65.67
2024-04-18T22:31:24.394Z,65.57
2024-04-18T22:33:52.116Z,65.70
2024-04-18T22:36:20.327Z,65.68
2024-04-18T22:38:47.939Z,65.62
2024-04-18T22:41:15.572Z,65.65
2024-04-18T22:43:43.424Z,65.47
2024-04-18T22:46:11.138Z,65.32
2024-04-18T22:48:40.891Z,65.33
2024-04-18T22:51:09.061Z,65.20
2024-04-18T22:53:38.355Z,65.21
2024-04-18T22:56:06.914Z,65.31
2024-04-18T22:58:34.504Z,65.35
2024-04-18T23:01:04.121Z,65.47
2024-04-18T23:03:32.112Z,65.61
2024-04-18T23:05:59.759Z,65.62
2024-04-18T23:08:27.436Z,65.61
2024-04-18T23:10:55.066Z,65.58
2024-04-18T23:13:22.800Z,65.75
2024-04-18T23:15:50.496Z,65.71
2024-04-18T23:18:18.376Z,65.65
2024-04-18T23:20:46.291Z,65.56
2024-04-18T23:23:14.863Z,65.48
2024-04-18T23:25:44.998Z,65.55
2024-04-18T23:28:12.842Z,65.42
2024-04-18T23:30:41.258Z,65.41
2024-04-18T23:33:11.238Z,65.50
2024-04-18T23:35:45.656Z,65.27
2024-04-18T23:38:13.328Z,65.26
2024-04-18T23:40:41.842Z,65.25
2024-04-18T23:43:09.696Z,65.25
2024-04-18T23:45:37.604Z,65.16
2024-04-18T23:48:07.695Z,65.05
2024-04-18T23:50:35.577Z,65.00
2024-04-18T23:53:03.206Z,65.14
2024-04-18T23:55:31.369Z,65.16
2024-04-18T23:58:00.067Z,65.18
